Time;durP1;ratioP1;P1;durP2;ratioP2;P2;SDS_P1;SDS_P2;PMS_P1;PMS_P2;Temp;Humidity;BMP_temperature;BMP_pressure;BME280_temperature;BME280_humidity;BME280_pressure;Samples;Min_cycle;Max_cycle;Signal;HPM_P1;HPM_P2
2023/05/16 00:13:30;;;;;;;22.80;9.32;;;;;;;16.24;83.27;100633.22;5017464;28;20114;-89
2023/05/16 00:15:56;;;;;;;20.35;7.78;;;;;;;15.83;83.39;100585.16;5018876;28;20090;-91
2023/05/16 00:18:22;;;;;;;17.05;8.45;;;;;;;15.84;83.67;100591.44;5018584;28;20018;-90
2023/05/16 00:20:49;;;;;;;18.50;8.48;;;;;;;16.09;84.13;100629.38;4999467;28;20398;-90
2023/05/16 00:23:15;;;;;;;18.00;8.48;;;;;;;15.78;84.25;100606.47;4993611;28;20022;-88
2023/05/16 00:25:41;;;;;;;16.38;8.45;;;;;;;15.57;85.14;100598.69;4993509;28;20145;-88
2023/05/16 00:28:07;;;;;;;20.00;9.15;;;;;;;15.73;86.19;100642.19;4995096;28;20022;-89
2023/05/16 00:30:33;;;;;;;16.95;8.23;;;;;;;15.37;87.19;100596.28;4993682;28;20085;-88
2023/05/16 00:32:59;;;;;;;20.70;9.35;;;;;;;15.35;87.89;100620.81;4994733;28;20022;-88
2023/05/16 00:35:25;;;;;;;24.90;9.30;;;;;;;15.31;88.91;100619.44;4994041;28;20217;-89
2023/05/16 00:37:51;;;;;;;27.38;9.90;;;;;;;15.16;89.76;100597.47;4994856;28;20058;-88
2023/05/16 00:40:17;;;;;;;17.65;10.48;;;;;;;15.23;90.54;100614.78;4993128;28;20113;-87
2023/05/16 00:42:43;;;;;;;22.38;11.15;;;;;;;15.34;90.75;100620.97;5012048;28;20034;-88
2023/05/16 00:45:10;;;;;;;16.20;9.15;;;;;;;15.09;91.32;100588.25;5001109;28;20070;-89
2023/05/16 00:47:36;;;;;;;12.77;9.55;;;;;;;15.09;91.79;100596.38;5026447;28;20064;-86
2023/05/16 00:50:05;;;;;;;18.83;9.05;;;;;;;15.08;92.17;100589.25;5026825;28;20025;-94
2023/05/16 00:52:32;;;;;;;12.57;8.52;;;;;;;15.08;92.62;100600.06;5036319;28;20053;-92
2023/05/16 00:54:58;;;;;;;23.60;9.68;;;;;;;15.27;92.67;100632.44;5018175;28;20094;-89
2023/05/16 00:57:24;;;;;;;19.05;9.80;;;;;;;15.36;92.89;100646.06;5012857;28;20084;-89
2023/05/16 00:59:50;;;;;;;25.88;9.35;;;;;;;15.38;92.87;100638.66;5012259;28;20113;-88
2023/05/16 01:02:16;;;;;;;25.17;10.20;;;;;;;15.24;93.12;100621.06;4995869;28;20092;-88
2023/05/16 01:04:43;;;;;;;24.75;10.32;;;;;;;15.41;93.29;100643.75;5012337;28;20042;-88
2023/05/16 01:07:09;;;;;;;17.75;10.00;;;;;;;15.09;93.16;100590.94;5012490;28;20042;-88
2023/05/16 01:09:35;;;;;;;22.38;10.52;;;;;;;15.38;93.71;100639.47;5015250;28;20029;-89
2023/05/16 01:12:08;;;;;;;19.73;9.57;;;;;;;15.33;94.15;100635.53;5024889;28;20108;-86
2023/05/16 01:14:51;;;;;;;25.73;14.02;;;;;;;15.36;94.83;100641.50;4998148;28;20093;-88
2023/05/16 01:17:28;;;;;;;24.67;10.15;;;;;;;15.26;94.89;100609.06;5000902;28;20049;-85
2023/05/16 01:20:18;;;;;;;14.25;9.80;;;;;;;15.47;95.02;100635.84;5006967;28;20029;-85
2023/05/16 01:26:22;;;;;;;20.40;10.02;;;;;;;15.51;94.29;100634.56;4996195;28;20073;-89
2023/05/16 01:28:49;;;;;;;18.98;10.13;;;;;;;15.27;94.26;100572.81;4996133;28;20030;-89
2023/05/16 01:31:15;;;;;;;17.05;10.10;;;;;;;15.64;94.10;100617.88;4994861;28;20496;-90
2023/05/16 01:33:42;;;;;;;22.05;10.57;;;;;;;15.50;93.92;100600.34;4993889;28;20030;-89
2023/05/16 01:36:10;;;;;;;19.15;10.43;;;;;;;15.53;93.83;100615.44;4994005;28;20418;-89
2023/05/16 01:38:48;;;;;;;21.35;11.18;;;;;;;15.52;94.24;100608.28;4993901;28;20042;-89
2023/05/16 01:41:46;;;;;;;31.27;12.00;;;;;;;15.43;93.78;100577.53;4995087;28;20026;-87
2023/05/16 01:44:22;;;;;;;28.33;11.70;;;;;;;15.69;93.70;100627.25;4955697;29;20043;-88
2023/05/16 01:46:52;;;;;;;27.75;11.50;;;;;;;15.50;93.61;100566.97;4960216;28;20063;-86
2023/05/16 01:49:29;;;;;;;20.30;9.88;;;;;;;15.51;93.20;100584.91;4960457;28;20054;-88
2023/05/16 01:52:01;;;;;;;19.05;11.15;;;;;;;15.45;93.44;100597.19;4971829;28;20039;-88
2023/05/16 01:54:31;;;;;;;20.40;11.05;;;;;;;15.54;94.17;100606.28;4953386;29;20066;-89
2023/05/16 01:56:58;;;;;;;21.65;10.52;;;;;;;15.49;93.96;100609.47;4953214;29;20031;-89
2023/05/16 01:59:24;;;;;;;23.27;10.50;;;;;;;15.72;94.11;100643.19;4952475;29;20031;-88
2023/05/16 02:01:59;;;;;;;17.83;10.02;;;;;;;15.64;94.11;100617.88;4914321;29;20989;-88
2023/05/16 02:04:27;;;;;;;20.27;9.80;;;;;;;15.48;93.85;100574.38;4914101;29;20040;-88
2023/05/16 02:06:53;;;;;;;25.20;10.50;;;;;;;15.69;93.78;100618.25;4914950;29;20079;-89
2023/05/16 02:09:19;;;;;;;17.90;10.82;;;;;;;15.79;93.66;100629.88;4914581;29;20127;-89
2023/05/16 02:11:45;;;;;;;29.73;12.35;;;;;;;15.63;93.44;100594.47;4914264;29;20534;-89
2023/05/16 02:14:11;;;;;;;30.25;10.80;;;;;;;15.85;93.55;100626.50;4914001;29;20133;-90
2023/05/16 02:16:37;;;;;;;20.45;10.45;;;;;;;15.67;93.23;100590.44;4914594;29;20040;-90
2023/05/16 02:19:05;;;;;;;19.70;10.25;;;;;;;15.65;92.90;100577.06;4914387;29;20496;-89
2023/05/16 02:21:31;;;;;;;24.88;11.40;;;;;;;15.87;92.30;100589.22;4941765;29;20044;-89
2023/05/16 02:30:40;;;;;;;23.15;10.18;;;;;;;16.02;88.55;100587.66;4952584;29;20065;-88
2023/05/16 02:33:05;;;;;;;20.13;9.48;;;;;;;16.01;88.05;100566.94;4952007;29;20051;-88
2023/05/16 02:35:31;;;;;;;27.35;12.10;;;;;;;16.19;87.71;100581.28;4952348;29;20473;-88
2023/05/16 02:37:57;;;;;;;88.03;17.65;;;;;;;16.09;87.68;100582.41;4953665;28;20056;-89
2023/05/16 02:40:23;;;;;;;19.17;10.63;;;;;;;16.19;88.25;100613.84;4991988;28;20551;-88
2023/05/16 02:42:49;;;;;;;18.85;10.18;;;;;;;15.75;89.47;100577.81;4997079;28;20031;-88
2023/05/16 02:45:15;;;;;;;19.15;9.93;;;;;;;15.88;90.27;100580.09;5016694;28;20034;-87
2023/05/16 02:47:42;;;;;;;21.00;11.18;;;;;;;15.85;89.66;100582.25;5015570;28;20027;-90
2023/05/16 02:50:08;;;;;;;21.38;11.60;;;;;;;16.03;89.53;100608.31;4994316;28;20033;-89
2023/05/16 02:52:35;;;;;;;17.65;10.52;;;;;;;15.70;89.12;100569.31;4992604;28;20421;-88
2023/05/16 02:55:00;;;;;;;22.00;11.13;;;;;;;16.00;89.02;100599.66;4993191;28;20054;-89
2023/05/16 02:57:26;;;;;;;26.05;11.25;;;;;;;16.08;88.85;100599.72;4993417;28;20072;-89
2023/05/16 03:13:18;;;;;;;18.50;10.75;;;;;;;16.09;86.94;100580.56;5001763;28;20057;-89
2023/05/16 03:15:44;;;;;;;34.80;12.32;;;;;;;16.16;86.38;100567.19;4995855;28;20398;-88
2023/05/16 03:18:10;;;;;;;28.75;12.45;;;;;;;16.36;86.29;100597.66;4996304;28;20038;-88
2023/05/16 03:20:37;;;;;;;30.08;11.55;;;;;;;16.34;86.04;100587.81;4996076;28;20030;-87
2023/05/16 03:23:06;;;;;;;20.60;11.50;;;;;;;16.57;85.95;100617.13;4997096;28;20037;-87
2023/05/16 03:25:32;;;;;;;20.08;10.52;;;;;;;16.58;85.49;100595.22;4996175;28;20490;-88
2023/05/16 03:27:58;;;;;;;50.33;15.00;;;;;;;16.53;84.99;100577.69;4995942;28;20042;-87
2023/05/16 03:30:25;;;;;;;36.25;11.85;;;;;;;16.50;84.63;100578.03;4996314;28;20033;-87
2023/05/16 03:32:51;;;;;;;37.13;11.27;;;;;;;16.51;84.25;100577.84;4997550;28;20457;-86
2023/05/16 03:35:17;;;;;;;20.58;11.52;;;;;;;16.62;83.94;100593.03;5004262;28;20026;-86
2023/05/16 03:37:42;;;;;;;30.75;12.68;;;;;;;16.52;84.22;100581.41;4996516;28;20049;-85
2023/05/16 03:40:08;;;;;;;37.15;13.80;;;;;;;16.47;84.20;100590.06;5003703;28;20029;-89
2023/05/16 03:42:34;;;;;;;23.05;12.57;;;;;;;16.64;84.98;100607.28;5014937;28;20030;-90
2023/05/16 03:44:59;;;;;;;28.42;11.88;;;;;;;16.51;85.36;100601.47;5008949;28;20027;-84
2023/05/16 03:47:25;;;;;;;44.95;14.05;;;;;;;16.49;86.28;100617.91;4993506;28;20030;-85
2023/05/16 03:49:52;;;;;;;30.13;12.43;;;;;;;16.39;86.30;100613.63;4994397;28;20031;-85
2023/05/16 03:52:17;;;;;;;40.63;13.65;;;;;;;16.49;86.70;100614.31;4994538;28;20030;-85
2023/05/16 03:54:43;;;;;;;33.72;12.90;;;;;;;16.17;86.85;100587.91;4994589;28;20478;-85
2023/05/16 03:57:08;;;;;;;40.85;13.68;;;;;;;16.44;87.19;100619.41;5026171;28;20431;-88
2023/05/16 03:59:35;;;;;;;23.52;13.25;;;;;;;16.26;86.88;100585.06;4993477;28;20038;-87
2023/05/16 04:02:00;;;;;;;32.88;13.32;;;;;;;16.53;87.02;100622.00;4993357;28;20121;-87
2023/05/16 04:04:25;;;;;;;32.92;12.98;;;;;;;16.64;86.94;100634.44;4992490;28;20184;-87
2023/05/16 04:06:51;;;;;;;33.17;13.80;;;;;;;16.77;86.78;100645.72;4993608;28;20027;-86
2023/05/16 04:09:17;;;;;;;35.50;14.25;;;;;;;16.70;86.47;100647.38;4995656;28;20334;-88
2023/05/16 04:11:43;;;;;;;29.33;13.18;;;;;;;16.78;86.56;100648.28;4998985;28;20070;-89
2023/05/16 04:14:09;;;;;;;49.13;13.05;;;;;;;16.88;86.37;100655.44;4995528;28;20030;-86
2023/05/16 04:16:34;;;;;;;49.10;15.43;;;;;;;17.01;85.54;100650.38;4993330;28;20042;-88
2023/05/16 04:19:00;;;;;;;55.17;13.85;;;;;;;17.19;84.96;100657.38;4994912;28;20034;-90
2023/05/16 04:21:25;;;;;;;46.72;14.18;;;;;;;17.14;83.93;100645.31;4995229;28;20084;-90
2023/05/16 04:23:51;;;;;;;46.17;12.65;;;;;;;17.29;82.71;100665.38;4995908;28;20034;-91
2023/05/16 04:26:16;;;;;;;48.03;12.00;;;;;;;17.22;82.42;100640.75;4995633;28;20395;-83
2023/05/16 04:31:15;;;;;;;56.55;14.80;;;;;;;17.18;81.97;100636.69;4957591;29;20044;-86
2023/05/16 04:33:41;;;;;;;48.20;14.35;;;;;;;17.31;81.05;100639.72;4956370;28;20109;-86
2023/05/16 04:36:07;;;;;;;28.73;12.27;;;;;;;17.32;80.53;100641.44;4960873;28;20086;-84
2023/05/16 04:38:32;;;;;;;60.38;14.18;;;;;;;17.40;80.07;100641.44;4966437;28;20030;-89
2023/05/16 04:40:58;;;;;;;32.72;10.85;;;;;;;17.59;79.64;100647.59;4965971;28;20035;-82
2023/05/16 04:43:23;;;;;;;31.65;12.07;;;;;;;17.33;78.67;100612.41;4957714;28;20501;-85
2023/05/16 04:45:49;;;;;;;30.23;12.25;;;;;;;17.33;78.86;100617.84;4954285;28;20043;-86
2023/05/16 04:48:15;;;;;;;39.47;9.73;;;;;;;17.34;78.65;100611.34;4955392;28;20040;-86
2023/05/16 04:50:41;;;;;;;37.70;10.07;;;;;;;17.28;78.96;100626.47;4953844;29;20027;-84
2023/05/16 04:53:07;;;;;;;31.10;10.57;;;;;;;17.22;79.13;100635.31;4953148;28;20023;-86
2023/05/16 04:55:32;;;;;;;69.82;12.60;;;;;;;17.26;80.38;100636.69;4951878;28;20090;-92
2023/05/16 04:57:58;;;;;;;23.60;9.70;;;;;;;17.13;80.02;100633.59;4952007;28;20031;-86
2023/05/16 05:00:23;;;;;;;51.72;11.50;;;;;;;17.28;79.71;100629.19;4954725;28;20095;-90
2023/05/16 05:02:49;;;;;;;33.65;11.30;;;;;;;17.49;78.69;100625.97;4957808;28;20094;-92
2023/05/16 05:05:15;;;;;;;28.92;8.77;;;;;;;17.55;76.75;100622.63;4953965;29;20059;-92
2023/05/16 05:07:40;;;;;;;34.95;10.27;;;;;;;17.51;76.88;100617.66;4976183;28;20442;-92
2023/05/16 05:10:07;;;;;;;33.28;10.38;;;;;;;17.42;77.43;100597.78;4970544;28;20034;-93
2023/05/16 05:12:34;;;;;;;22.40;9.57;;;;;;;17.72;77.63;100612.59;4956977;28;20031;-92
2023/05/16 05:14:59;;;;;;;29.10;9.27;;;;;;;17.88;76.38;100616.16;4954256;28;20031;-93
2023/05/16 05:17:25;;;;;;;50.38;11.90;;;;;;;17.99;75.21;100616.81;4954325;29;20031;-91
2023/05/16 05:19:50;;;;;;;69.38;12.38;;;;;;;18.09;73.36;100592.97;4956118;28;20031;-94
2023/05/16 05:22:16;;;;;;;46.80;11.18;;;;;;;18.03;71.43;100582.78;4968592;28;20082;-88
2023/05/16 05:24:41;;;;;;;30.73;8.32;;;;;;;18.07;72.48;100593.13;4974664;28;20478;-86
2023/05/16 05:27:06;;;;;;;48.70;9.85;;;;;;;17.92;74.11;100616.63;4961244;28;20046;-83
2023/05/16 05:29:32;;;;;;;24.92;9.52;;;;;;;17.89;75.06;100619.72;4963340;28;20058;-88
2023/05/16 05:31:58;;;;;;;38.13;10.05;;;;;;;17.66;75.58;100599.69;4975106;28;20034;-94
2023/05/16 05:34:25;;;;;;;40.78;9.63;;;;;;;17.81;76.18;100636.91;4992715;28;20039;-96
2023/05/16 05:36:50;;;;;;;21.73;8.55;;;;;;;17.66;76.24;100632.31;4963628;28;20512;-90
2023/05/16 05:39:16;;;;;;;36.85;10.07;;;;;;;17.77;76.75;100640.13;4969194;28;20024;-88
2023/05/16 05:41:41;;;;;;;34.60;10.05;;;;;;;17.63;77.06;100635.38;4953992;28;20031;-87
2023/05/16 05:44:07;;;;;;;34.15;8.80;;;;;;;17.65;77.58;100636.03;4955530;28;20493;-88
2023/05/16 05:46:33;;;;;;;32.80;9.68;;;;;;;17.55;77.71;100624.50;4958684;29;20110;-89
2023/05/16 05:48:59;;;;;;;37.67;10.13;;;;;;;17.48;77.28;100607.13;4969905;28;20058;-87
2023/05/16 05:51:25;;;;;;;36.92;11.43;;;;;;;17.63;77.66;100627.22;4964671;28;20027;-85
2023/05/16 05:53:51;;;;;;;16.23;8.68;;;;;;;17.67;77.04;100617.72;4962934;28;20118;-87
2023/05/16 05:56:17;;;;;;;48.83;10.65;;;;;;;17.76;76.91;100613.97;4967709;28;20071;-87
2023/05/16 05:58:42;;;;;;;52.65;10.18;;;;;;;17.84;76.18;100616.66;4959065;28;20035;-89
2023/05/16 06:01:10;;;;;;;23.45;8.25;;;;;;;17.99;75.47;100620.38;4952072;29;20094;-88
2023/05/16 06:03:35;;;;;;;38.20;8.98;;;;;;;18.15;75.20;100616.78;4952013;28;20102;-87
2023/05/16 06:06:01;;;;;;;41.70;9.25;;;;;;;18.25;74.28;100601.09;4952663;29;20031;-87
2023/05/16 06:08:26;;;;;;;14.73;7.40;;;;;;;18.33;73.39;100591.03;4952645;28;20035;-88
2023/05/16 06:10:51;;;;;;;32.95;10.27;;;;;;;18.45;73.34;100577.88;4952412;28;20022;-89
2023/05/16 06:13:17;;;;;;;33.40;8.73;;;;;;;18.75;72.26;100604.31;4953880;28;20033;-87
2023/05/16 06:15:42;;;;;;;27.55;8.27;;;;;;;18.90;70.81;100586.19;4951695;28;20033;-88
2023/05/16 06:18:08;;;;;;;33.85;10.30;;;;;;;19.19;70.53;100579.19;4951854;28;20109;-89
2023/05/16 06:20:33;;;;;;;25.90;7.63;;;;;;;19.23;68.72;100591.44;4952205;28;20479;-88
2023/05/16 06:23:00;;;;;;;31.23;8.07;;;;;;;19.24;68.09;100604.88;4957350;28;20023;-88
2023/05/16 06:25:25;;;;;;;39.03;7.50;;;;;;;19.21;67.08;100593.47;4958634;28;20047;-88
2023/05/16 06:27:51;;;;;;;27.45;7.13;;;;;;;19.02;67.54;100570.25;4965905;28;20011;-89
2023/05/16 06:30:16;;;;;;;30.90;8.50;;;;;;;18.92;67.81;100575.13;4974785;28;20324;-87
2023/05/16 06:32:42;;;;;;;37.60;8.65;;;;;;;19.00;67.91;100575.06;4964424;28;20031;-88
2023/05/16 06:35:08;;;;;;;27.08;8.25;;;;;;;18.90;65.71;100547.19;4952142;28;20191;-88
2023/05/16 06:37:34;;;;;;;24.55;7.82;;;;;;;18.90;64.38;100561.66;4952474;28;20031;-90
2023/05/16 06:39:59;;;;;;;23.95;7.13;;;;;;;18.92;64.18;100575.97;4970790;28;20499;-89
2023/05/16 06:42:25;;;;;;;28.20;6.55;;;;;;;18.59;64.26;100557.25;4956069;29;20031;-87
2023/05/16 06:44:50;;;;;;;23.50;7.20;;;;;;;18.49;65.47;100541.13;4956674;29;20027;-88
2023/05/16 06:47:16;;;;;;;22.38;6.88;;;;;;;18.59;66.54;100563.53;4956338;29;20479;-88
2023/05/16 06:49:41;;;;;;;27.38;6.78;;;;;;;18.54;66.68;100548.75;4957260;28;20561;-90
2023/05/16 06:52:07;;;;;;;17.33;7.05;;;;;;;18.53;66.32;100566.16;4955630;28;20094;-88
2023/05/16 06:54:32;;;;;;;41.42;8.32;;;;;;;18.57;66.14;100559.28;4955691;28;20069;-87
2023/05/16 06:56:57;;;;;;;22.35;6.45;;;;;;;18.42;65.84;100540.97;4955611;28;20031;-89
2023/05/16 06:59:23;;;;;;;13.80;5.63;;;;;;;18.66;66.39;100561.81;4955621;28;20403;-89
2023/05/16 07:01:48;;;;;;;28.90;6.03;;;;;;;18.65;64.85;100570.16;4954335;28;20179;-87
2023/05/16 07:04:14;;;;;;;20.67;6.57;;;;;;;18.64;64.89;100558.41;4955002;29;20035;-87
2023/05/16 07:06:40;;;;;;;33.08;7.35;;;;;;;18.61;65.60;100580.56;4971540;28;20043;-89
2023/05/16 07:09:06;;;;;;;28.95;6.40;;;;;;;18.73;65.87;100581.88;4958695;28;20108;-88
2023/05/16 07:11:31;;;;;;;27.60;6.93;;;;;;;18.59;64.77;100570.88;4957393;28;20035;-88
2023/05/16 07:13:57;;;;;;;32.10;6.85;;;;;;;18.71;65.64;100599.44;4957919;28;20039;-88
2023/05/16 07:16:23;;;;;;;141.02;21.88;;;;;;;18.87;65.33;100610.22;4956728;28;20483;-90
2023/05/16 07:18:48;;;;;;;24.45;7.47;;;;;;;18.81;64.25;100602.75;4964268;28;20503;-87
2023/05/16 07:21:14;;;;;;;38.53;8.85;;;;;;;19.00;65.80;100602.31;4972793;28;20019;-88
2023/05/16 07:23:40;;;;;;;28.00;6.60;;;;;;;19.11;64.02;100610.06;4971659;28;20027;-85
2023/05/16 07:26:05;;;;;;;31.88;8.18;;;;;;;19.37;64.71;100620.66;4979382;28;20019;-88
2023/05/16 07:28:31;;;;;;;13.63;6.55;;;;;;;19.46;63.06;100620.44;4973820;28;20031;-89
2023/05/16 07:30:57;;;;;;;39.92;8.50;;;;;;;19.52;63.15;100611.53;4955371;28;20059;-89
2023/05/16 07:33:23;;;;;;;23.38;7.35;;;;;;;19.60;63.04;100604.31;4955375;28;20031;-90
2023/05/16 07:35:49;;;;;;;34.35;7.28;;;;;;;19.78;62.74;100596.66;4956687;29;20031;-88
2023/05/16 07:38:14;;;;;;;22.55;6.25;;;;;;;19.92;61.48;100599.38;4956155;29;20031;-88
2023/05/16 07:40:40;;;;;;;27.20;6.45;;;;;;;20.05;61.53;100604.22;4957340;28;20035;-89
2023/05/16 07:43:05;;;;;;;30.65;6.63;;;;;;;20.12;60.23;100577.84;4955554;28;20027;-89
2023/05/16 07:45:31;;;;;;;22.65;7.78;;;;;;;20.03;59.63;100600.81;4955005;28;20110;-89
2023/05/16 07:47:57;;;;;;;16.77;6.65;;;;;;;20.00;60.09;100609.38;4955088;28;20038;-88
2023/05/16 07:50:22;;;;;;;26.70;7.90;;;;;;;19.98;61.41;100603.25;4956765;28;20536;-88
2023/05/16 07:52:47;;;;;;;32.97;7.13;;;;;;;19.97;62.83;100623.38;4977950;28;20070;-89
2023/05/16 07:55:13;;;;;;;60.10;24.88;;;;;;;19.87;62.16;100617.38;4969775;28;20058;-87
2023/05/16 07:57:39;;;;;;;17.70;6.60;;;;;;;19.89;62.28;100620.75;4965706;28;20063;-89
2023/05/16 08:00:05;;;;;;;64.57;9.00;;;;;;;19.87;62.47;100617.38;4957434;28;20174;-87
2023/05/16 08:02:31;;;;;;;30.98;7.50;;;;;;;20.01;62.15;100633.78;4955241;28;20024;-90
2023/05/16 08:04:57;;;;;;;17.60;6.45;;;;;;;19.90;62.77;100631.50;4956924;28;20031;-88
2023/05/16 08:07:23;;;;;;;16.38;7.10;;;;;;;19.91;62.60;100641.38;4955608;28;20040;-88
2023/05/16 08:09:48;;;;;;;20.00;6.32;;;;;;;19.83;63.29;100632.41;4956156;28;20028;-88
2023/05/16 08:12:14;;;;;;;21.30;6.95;;;;;;;19.86;63.65;100649.28;4956978;29;20034;-89
2023/05/16 08:14:39;;;;;;;39.88;7.95;;;;;;;19.91;63.47;100649.56;4967453;28;20034;-89
2023/05/16 08:17:05;;;;;;;25.42;6.55;;;;;;;20.06;63.13;100642.25;4992874;28;20035;-86
2023/05/16 08:19:31;;;;;;;26.90;7.95;;;;;;;20.08;63.27;100653.00;4976476;29;20099;-86
2023/05/16 08:21:57;;;;;;;18.38;6.65;;;;;;;20.03;63.00;100647.22;4977973;28;20030;-86
2023/05/16 08:24:23;;;;;;;27.15;6.57;;;;;;;20.06;63.14;100655.91;4978222;28;20079;-87
2023/05/16 08:26:49;;;;;;;17.27;6.03;;;;;;;20.14;62.29;100640.47;4969190;28;20024;-87
2023/05/16 08:29:14;;;;;;;28.38;7.05;;;;;;;20.20;61.88;100635.13;4974945;28;20039;-87
2023/05/16 08:31:40;;;;;;;15.38;6.38;;;;;;;20.25;61.18;100632.66;4986324;28;20031;-88
2023/05/16 08:34:05;;;;;;;20.95;7.20;;;;;;;20.29;61.18;100639.50;4973644;28;20035;-86
2023/05/16 08:36:33;;;;;;;21.45;6.78;;;;;;;20.21;60.53;100649.63;4963545;29;20039;-89
2023/05/16 08:38:59;;;;;;;65.15;10.15;;;;;;;20.07;60.66;100629.44;4956968;29;20031;-90
2023/05/16 08:41:25;;;;;;;22.48;6.70;;;;;;;19.93;61.45;100638.47;4958720;29;20126;-88
2023/05/16 08:43:51;;;;;;;27.10;7.18;;;;;;;19.94;61.55;100651.06;4977356;28;20039;-88
2023/05/16 08:46:21;;;;;;;20.83;6.80;;;;;;;20.00;62.16;100634.78;4977099;28;20212;-88
2023/05/16 08:48:53;;;;;;;25.65;6.93;;;;;;;20.08;62.21;100642.94;4961324;28;20041;-87
2023/05/16 08:51:19;;;;;;;22.40;6.60;;;;;;;20.07;62.03;100618.53;4972164;28;20126;-87
2023/05/16 08:53:53;;;;;;;15.90;6.28;;;;;;;20.07;61.48;100629.44;4955700;28;20048;-90
2023/05/16 08:56:21;;;;;;;27.88;5.95;;;;;;;20.00;62.32;100629.34;4954844;28;20031;-90
2023/05/16 08:58:48;;;;;;;18.92;6.50;;;;;;;20.31;61.52;100621.03;4954615;28;20088;-89
2023/05/16 09:01:14;;;;;;;32.22;6.90;;;;;;;20.28;61.39;100621.41;4953907;28;20050;-88
2023/05/16 09:03:40;;;;;;;25.02;7.30;;;;;;;20.42;61.04;100617.84;4955101;28;20122;-88
2023/05/16 09:06:06;;;;;;;15.70;6.35;;;;;;;20.68;60.40;100627.41;4953960;28;20122;-89
2023/05/16 09:08:31;;;;;;;23.23;6.25;;;;;;;20.67;59.96;100620.28;4953998;29;20084;-89
2023/05/16 09:10:57;;;;;;;19.88;7.45;;;;;;;20.71;60.21;100610.63;4957070;28;20530;-90
2023/05/16 09:13:23;;;;;;;23.38;6.25;;;;;;;20.79;59.89;100608.66;4976045;28;20027;-88
2023/05/16 09:16:11;;;;;;;18.10;6.63;;;;;;;21.04;59.55;100607.25;4943118;29;20066;-88
2023/05/16 09:18:38;;;;;;;25.15;6.75;;;;;;;21.18;58.83;100613.78;4977467;28;20023;-88
2023/05/16 09:21:06;;;;;;;22.42;6.40;;;;;;;21.34;58.15;100610.81;4975706;28;20082;-89
2023/05/16 09:23:32;;;;;;;33.20;7.85;;;;;;;21.31;57.66;100594.78;4954542;28;20034;-87
2023/05/16 09:25:58;;;;;;;23.70;6.70;;;;;;;21.59;57.38;100603.88;4952956;28;20419;-87
2023/05/16 09:28:25;;;;;;;28.52;6.88;;;;;;;21.58;56.79;100596.72;4953248;28;20019;-89
2023/05/16 09:30:52;;;;;;;16.85;5.65;;;;;;;21.69;56.89;100600.81;4953436;28;20213;-89
2023/05/16 09:33:17;;;;;;;19.08;7.30;;;;;;;21.67;56.97;100581.84;4954305;28;20027;-89
2023/05/16 09:35:43;;;;;;;22.95;7.05;;;;;;;21.76;56.22;100574.34;4953568;28;20616;-88
2023/05/16 09:38:16;;;;;;;18.65;5.88;;;;;;;21.83;56.09;100538.78;4951934;29;20463;-89
2023/05/16 09:40:42;;;;;;;32.70;7.95;;;;;;;21.87;55.88;100576.50;4953742;28;20495;-87
2023/05/16 09:43:07;;;;;;;21.40;6.40;;;;;;;21.96;56.17;100586.31;4954246;28;20050;-88
2023/05/16 09:45:34;;;;;;;39.05;8.07;;;;;;;21.92;56.01;100573.22;4952616;28;20035;-87
2023/05/16 09:48:13;;;;;;;31.95;7.13;;;;;;;21.92;55.97;100584.19;4953718;28;20406;-86
2023/05/16 09:50:41;;;;;;;27.38;6.22;;;;;;;21.67;56.17;100567.31;4956130;28;20034;-90
2023/05/16 09:53:06;;;;;;;20.45;6.32;;;;;;;21.59;56.65;100576.50;4953498;28;20487;-89
2023/05/16 09:55:32;;;;;;;33.67;7.28;;;;;;;21.80;56.68;100569.31;4952409;28;20171;-88
2023/05/16 09:57:57;;;;;;;25.48;6.57;;;;;;;22.13;55.91;100581.38;4954518;28;20035;-88
2023/05/16 10:00:32;;;;;;;20.23;6.85;;;;;;;22.15;55.97;100569.16;4954569;28;20114;-88
2023/05/16 10:03:00;;;;;;;23.65;8.60;;;;;;;22.23;56.01;100571.72;4954979;28;20031;-87
2023/05/16 10:05:26;;;;;;;31.55;6.72;;;;;;;22.31;55.25;100578.97;4955503;28;20035;-89
2023/05/16 10:07:56;;;;;;;26.60;6.30;;;;;;;22.16;54.79;100572.75;4957743;28;20086;-88
2023/05/16 10:10:22;;;;;;;34.50;8.68;;;;;;;22.18;55.86;100567.91;4959943;28;20043;-90
2023/05/16 10:12:50;;;;;;;26.65;7.55;;;;;;;22.08;55.46;100553.72;4963369;28;20027;-86
2023/05/16 10:15:16;;;;;;;21.13;6.82;;;;;;;22.18;56.10;100565.16;4977611;28;20022;-86
2023/05/16 10:17:44;;;;;;;19.50;7.10;;;;;;;22.28;56.08;100567.56;4976936;28;20015;-87
2023/05/16 10:20:11;;;;;;;27.42;7.13;;;;;;;22.10;56.58;100547.03;4974307;28;20091;-86
2023/05/16 10:22:42;;;;;;;14.90;6.47;;;;;;;22.21;56.71;100551.91;4960041;28;20028;-88
2023/05/16 10:25:27;;;;;;;27.50;7.28;;;;;;;22.18;57.19;100557.81;4957504;28;20027;-88
2023/05/16 10:27:53;;;;;;;16.52;6.50;;;;;;;22.09;55.93;100538.97;4956214;28;20070;-86
2023/05/16 10:30:20;;;;;;;19.38;6.25;;;;;;;22.14;56.47;100544.69;4954054;28;20415;-90
2023/05/16 10:32:46;;;;;;;36.90;10.18;;;;;;;22.26;56.56;100542.25;4952562;28;20517;-87
2023/05/16 10:35:12;;;;;;;13.82;5.80;;;;;;;21.98;55.81;100523.13;4953144;28;20070;-87
2023/05/16 10:37:39;;;;;;;17.98;6.25;;;;;;;21.96;56.19;100542.47;4954407;28;20083;-88
2023/05/16 10:40:05;;;;;;;18.95;7.32;;;;;;;21.80;56.36;100518.13;4951941;28;20043;-88
2023/05/16 10:42:32;;;;;;;20.45;6.05;;;;;;;22.03;56.48;100537.91;4965276;28;20031;-85
2023/05/16 10:45:17;;;;;;;16.55;6.70;;;;;;;22.21;55.65;100532.75;4955479;28;20046;-87
2023/05/16 10:47:59;;;;;;;32.83;7.60;;;;;;;22.34;55.47;100529.22;4952972;28;20426;-89
2023/05/16 10:50:35;;;;;;;19.75;5.80;;;;;;;22.49;55.19;100521.72;4952495;28;20033;-90
2023/05/16 10:53:11;;;;;;;27.38;8.38;;;;;;;22.51;54.52;100519.59;4952397;28;20042;-89
2023/05/16 10:55:38;;;;;;;21.40;6.57;;;;;;;22.59;54.02;100500.25;4952546;28;20141;-88
2023/05/16 10:58:03;;;;;;;23.20;5.63;;;;;;;22.90;52.74;100504.38;4952073;28;20031;-89
2023/05/16 11:00:29;;;;;;;16.02;6.15;;;;;;;23.04;52.60;100504.19;4952230;28;20035;-89
2023/05/16 11:03:04;;;;;;;24.27;6.15;;;;;;;23.24;51.79;100505.03;4970082;28;20030;-89
2023/05/16 11:05:30;;;;;;;25.95;7.20;;;;;;;23.18;51.18;100510.50;4958747;28;20049;-88
2023/05/16 11:08:05;;;;;;;24.67;5.90;;;;;;;23.07;51.88;100506.50;4962889;29;20031;-87
2023/05/16 11:10:31;;;;;;;15.15;6.00;;;;;;;23.13;51.07;100507.56;4976035;28;20043;-86
2023/05/16 11:13:06;;;;;;;17.30;6.57;;;;;;;23.21;51.04;100494.47;4975103;28;20078;-87
2023/05/16 11:15:31;;;;;;;22.98;6.55;;;;;;;23.44;51.05;100499.59;4961748;28;20035;-87
2023/05/16 11:18:07;;;;;;;13.38;5.30;;;;;;;23.46;51.01;100491.97;4961574;28;20493;-86
2023/05/16 11:20:35;;;;;;;24.25;6.63;;;;;;;23.35;51.06;100470.63;4954736;28;20434;-89
2023/05/16 11:23:16;;;;;;;19.60;5.60;;;;;;;23.29;51.34;100490.69;4953105;28;20030;-88
2023/05/16 11:25:44;;;;;;;28.10;7.18;;;;;;;23.52;51.92;100484.78;4955787;28;20410;-89
2023/05/16 11:28:12;;;;;;;26.85;7.25;;;;;;;23.49;52.07;100479.72;4956215;28;20561;-87
2023/05/16 11:30:54;;;;;;;27.50;7.00;;;;;;;23.24;51.85;100466.63;4955787;28;20130;-87
2023/05/16 11:33:21;;;;;;;22.88;6.22;;;;;;;23.34;52.40;100482.66;4955000;28;20039;-87
2023/05/16 11:36:04;;;;;;;29.20;6.82;;;;;;;23.42;52.44;100468.78;4956108;28;20039;-88
2023/05/16 11:38:33;;;;;;;22.73;6.53;;;;;;;23.25;51.01;100468.31;4954779;28;20027;-88
2023/05/16 11:41:06;;;;;;;42.63;6.28;;;;;;;23.25;51.26;100472.94;4954902;28;20060;-89
2023/05/16 11:43:41;;;;;;;24.92;9.60;;;;;;;23.35;52.68;100478.88;4954992;28;20387;-88
2023/05/16 11:46:11;;;;;;;29.17;6.50;;;;;;;23.31;53.06;100447.41;4955197;28;20027;-87
2023/05/16 11:48:36;;;;;;;23.25;5.60;;;;;;;23.48;52.02;100437.72;4955474;28;20050;-89
2023/05/16 11:51:02;;;;;;;20.45;6.85;;;;;;;23.58;51.18;100443.59;4954871;28;20059;-88
2023/05/16 11:53:28;;;;;;;26.98;6.60;;;;;;;23.72;50.16;100445.28;4957068;29;20027;-89